This demonstration page uses our WeatherBlox Daily Observations layout. Learn more.

36.17497, -115.13722

Hourly Observations for July 14, 2019

Temp ( °F °C ) Dew Point ( °F °C ) Humidity (%) Winds ( mph kmh ) Pressure ( in mb ) Visibility ( mi km ) Precip ( " mm )
12:53 am 00:53 Clear 96 35.6 37 2.8 13 13 SSW 3 6 29.8 1009 10 16.09344 0 0
1:53 am 01:53 Clear 96 35.6 31 -0.6 10 10 VRB 5 7 29.8 1009 10 16.09344 0 0
2:53 am 02:53 Clear 90 32.2 33 0.6 13 13 Calm 29.83 1010 10 16.09344 0 0
3:53 am 03:53 Clear 88 31.1 38 3.3 17 17 Calm 29.83 1010 10 16.09344 0 0
4:53 am 04:53 Clear 86 30 41 5 20 20 NW 6 9 29.85 1011 10 16.09344 0 0
5:53 am 05:53 Sunny 84 28.9 39 3.9 20 20 WNW 3 6 29.85 1011 10 16.09344 0 0
6:53 am 06:53 Sunny 85 29.4 40 4.4 20 20 NNW 3 6 29.88 1012 10 16.09344 0 0
7:53 am 07:53 Sunny 89 31.7 40 4.4 18 18 Calm 29.88 1012 10 16.09344 0 0
8:53 am 08:53 Sunny 92 33.3 40 4.4 16 16 Calm 29.88 1012 10 16.09344 0 0
9:53 am 09:53 Sunny 98 36.7 37 2.8 12 12 VRB 3 6 29.88 1012 10 16.09344 0 0
10:53 am 10:53 Sunny 103 39.4 29 -1.7 7 7 SE 8 13 29.88 1012 10 16.09344 0 0
11:53 am 11:53 Sunny 106 41.1 28 -2.2 6 6 E 9 15 29.85 1011 10 16.09344 0 0
12:48 pm 12:48 Sunny 106 41 27 -3 6 6 W 9 15 29.68 1005 10 16.09344 0 0
12:53 pm 12:53 Sunny 105 40.6 27 -2.8 6 6 WNW 10 17 29.85 1011 10 16.09344 0 0
1:53 pm 13:53 Sunny 107 41.7 27 -2.8 6 6 SW 8 13 29.83 1010 10 16.09344 0 0
2:53 pm 14:53 Sunny 108 42.2 25 -3.9 5 5 W 14 22 29.83 1010 10 16.09344 0 0
3:53 pm 15:53 Sunny 108 42.2 26 -3.3 6 6 W 12 19 29.8 1009 10 16.09344 0 0
4:53 pm 16:53 Sunny 108 42.2 27 -2.8 6 6 WSW 14 22 29.8 1009 10 16.09344 0 0
5:53 pm 17:53 Sunny 107 41.7 26 -3.3 6 6 WSW 13 20 29.77 1008 10 16.09344 0 0
6:53 pm 18:53 Sunny 106 41.1 25 -3.9 6 6 WNW 12 19 29.77 1008 10 16.09344 0 0
7:53 pm 19:53 Sunny 103 39.4 27 -2.8 7 7 W 7 11 29.77 1008 10 16.09344 0 0
8:53 pm 20:53 Clear 101 38.3 23 -5 6 6 W 8 13 29.8 1009 10 16.09344 0 0
9:53 pm 21:53 Clear 98 36.7 23 -5 7 7 W 9 15 29.8 1009 10 16.09344 0 0
10:53 pm 22:53 Clear 95 35 26 -3.3 8 8 W 8 13 29.8 1009 10 16.09344 0 0
11:53 pm 23:53 Clear 95 35 27 -2.8 9 9 W 8 13 29.8 1009 10 16.09344 0 0

Powered by AerisWeather